createdAt,value
2022-08-07T00:02:39.630Z,96700.71
2022-08-07T00:05:05.806Z,96699.02
2022-08-07T00:07:40.372Z,96693.95
2022-08-07T00:10:27.060Z,96703.64
2022-08-07T00:13:01.799Z,96701.38
2022-08-07T00:15:38.383Z,96700.92
2022-08-07T00:18:18.951Z,96704.98
2022-08-07T00:20:52.191Z,96704.05
2022-08-07T00:23:21.075Z,96705.32
2022-08-07T00:25:59.043Z,96707.99
2022-08-07T00:28:34.437Z,96707.66
2022-08-07T00:31:12.706Z,96712.73
2022-08-07T00:33:47.436Z,96713.56
2022-08-07T00:36:16.870Z,96711.73
2022-08-07T00:38:45.548Z,96712.48
2022-08-07T00:41:14.618Z,96711.82
2022-08-07T00:44:01.374Z,96713.64
2022-08-07T00:46:33.180Z,96714.04
2022-08-07T00:49:03.481Z,96715.76
2022-08-07T00:51:56.576Z,96717.83
2022-08-07T00:54:20.878Z,96714.46
2022-08-07T00:56:52.269Z,96714.27
2022-08-07T00:59:35.079Z,96713.02
2022-08-07T01:02:14.178Z,96715.39
2022-08-07T01:04:59.066Z,96713.70
2022-08-07T01:07:29.332Z,96710.35
2022-08-07T01:10:06.603Z,96713.13
2022-08-07T01:12:53.424Z,96710.63
2022-08-07T01:15:35.928Z,96712.81
2022-08-07T01:18:17.129Z,96709.99
2022-08-07T01:20:59.709Z,96712.15
2022-08-07T01:23:39.390Z,96717.84
2022-08-07T01:26:15.831Z,96716.16
2022-08-07T01:28:51.068Z,96718.61
2022-08-07T01:31:41.791Z,96714.02
2022-08-07T01:34:14.554Z,96713.25
2022-08-07T01:36:44.755Z,96713.14
2022-08-07T01:39:39.640Z,96709.08
2022-08-07T01:42:38.373Z,96711.83
2022-08-07T01:45:17.933Z,96712.04
2022-08-07T01:48:20.893Z,96713.28
2022-08-07T01:50:43.262Z,96714.88
2022-08-07T01:53:21.806Z,96713.67
2022-08-07T01:56:09.754Z,96714.04
2022-08-07T01:59:15.768Z,96714.39
2022-08-07T02:02:02.836Z,96715.42
2022-08-07T02:04:56.551Z,96716.93
2022-08-07T02:07:49.944Z,96717.13
2022-08-07T02:10:26.068Z,96712.21
2022-08-07T02:12:59.631Z,96712.56
2022-08-07T02:15:35.183Z,96715.78
2022-08-07T02:18:05.002Z,96720.27
2022-08-07T02:20:34.988Z,96716.79
2022-08-07T02:23:07.879Z,96719.45
2022-08-07T02:26:31.379Z,96723.40
2022-08-07T02:28:33.440Z,96724.52
2022-08-07T02:31:18.900Z,96726.70
2022-08-07T02:34:04.022Z,96729.02
2022-08-07T02:36:42.742Z,96726.60
2022-08-07T02:39:43.181Z,96725.71
2022-08-07T02:42:10.319Z,96727.05
2022-08-07T02:44:48.863Z,96729.89
2022-08-07T02:47:23.546Z,96733.70
2022-08-07T02:49:59.949Z,96738.17
2022-08-07T02:52:41.811Z,96738.45
2022-08-07T02:55:28.561Z,96733.96
2022-08-07T02:58:15.255Z,96731.13
2022-08-07T03:00:48.402Z,96732.37
2022-08-07T03:03:22.905Z,96736.80
2022-08-07T03:05:56.441Z,96736.86
2022-08-07T03:08:26.846Z,96737.10
2022-08-07T03:10:59.862Z,96743.55
2022-08-07T03:13:38.751Z,96740.91
2022-08-07T03:16:18.730Z,96742.54
2022-08-07T03:18:56.931Z,96744.95
2022-08-07T03:21:26.959Z,96743.53
2022-08-07T03:24:20.720Z,96742.34
2022-08-07T03:26:58.624Z,96744.42
2022-08-07T03:29:36.603Z,96745.41
2022-08-07T03:32:13.323Z,96746.90
2022-08-07T03:34:47.252Z,96750.10
2022-08-07T03:37:37.505Z,96748.73
2022-08-07T03:40:16.900Z,96748.55
2022-08-07T03:42:46.443Z,96751.92
2022-08-07T03:45:30.338Z,96752.69
2022-08-07T03:48:09.987Z,96750.95
2022-08-07T03:50:43.209Z,96755.02
2022-08-07T03:54:00.653Z,96755.91
2022-08-07T03:56:32.826Z,96756.89
2022-08-07T03:59:10.075Z,96755.89
2022-08-07T04:01:47.186Z,96757.62
2022-08-07T04:04:18.681Z,96755.42
2022-08-07T04:06:51.680Z,96758.89
2022-08-07T04:09:23.110Z,96763.50
2022-08-07T04:12:23.805Z,96768.63
2022-08-07T04:14:46.204Z,96767.72
2022-08-07T04:17:20.910Z,96769.88
2022-08-07T04:20:11.461Z,96773.52
2022-08-07T04:22:53.078Z,96772.13
2022-08-07T04:25:24.638Z,96774.71
2022-08-07T04:28:01.000Z,96772.64
2022-08-07T04:30:39.569Z,96775.40
2022-08-07T04:33:20.639Z,96779.16
2022-08-07T04:35:54.127Z,96785.20
2022-08-07T04:38:28.800Z,96786.81
2022-08-07T04:40:58.097Z,96789.94
2022-08-07T04:44:09.619Z,96792.35
2022-08-07T04:46:51.318Z,96793.64
2022-08-07T04:49:57.751Z,96794.02
2022-08-07T04:52:52.041Z,96791.16
2022-08-07T04:58:09.807Z,96791.95
2022-08-07T05:02:02.390Z,96789.30
2022-08-07T05:04:50.347Z,96789.87
2022-08-07T05:07:48.537Z,96795.88
2022-08-07T05:10:27.031Z,96798.95
2022-08-07T05:14:52.819Z,96802.34
2022-08-07T05:16:10.343Z,96804.98
2022-08-07T05:18:45.678Z,96802.02
2022-08-07T05:21:18.471Z,96807.41
2022-08-07T05:24:12.381Z,96809.36
2022-08-07T05:26:41.717Z,96809.27
2022-08-07T05:29:18.299Z,96810.24
2022-08-07T05:31:52.741Z,96812.13
2022-08-07T05:34:26.386Z,96813.12
2022-08-07T05:36:56.913Z,96814.83
2022-08-07T05:40:05.547Z,96816.45
2022-08-07T05:42:33.904Z,96818.94
2022-08-07T05:45:14.279Z,96817.02
2022-08-07T05:48:02.578Z,96820.50
2022-08-07T05:50:42.978Z,96819.73
2022-08-07T05:54:09.343Z,96823.10
2022-08-07T05:56:05.883Z,96828.23
2022-08-07T05:58:40.856Z,96826.16
2022-08-07T06:01:20.429Z,96830.50
2022-08-07T06:03:58.848Z,96826.91
2022-08-07T06:06:34.499Z,96828.36
2022-08-07T06:09:05.693Z,96832.11
2022-08-07T06:11:39.327Z,96833.83
2022-08-07T06:14:12.114Z,96833.81
2022-08-07T06:16:56.442Z,96835.82
2022-08-07T06:19:51.876Z,96836.52
2022-08-07T06:22:24.152Z,96835.23
2022-08-07T06:25:17.118Z,96837.38
2022-08-07T06:28:01.265Z,96838.65
2022-08-07T06:30:35.699Z,96839.84
2022-08-07T06:33:16.154Z,96838.64
2022-08-07T06:36:06.620Z,96839.60
2022-08-07T06:38:35.332Z,96839.27
2022-08-07T06:41:12.940Z,96839.13
2022-08-07T06:44:01.307Z,96836.53
2022-08-07T06:46:35.488Z,96837.05
2022-08-07T06:49:05.592Z,96834.60
2022-08-07T06:51:49.645Z,96831.05
2022-08-07T06:55:32.411Z,96827.52
2022-08-07T06:57:12.096Z,96831.84
2022-08-07T07:00:13.245Z,96830.83
2022-08-07T07:02:48.895Z,96829.93
2022-08-07T07:06:02.681Z,96828.15
2022-08-07T07:08:18.437Z,96832.64
2022-08-07T07:10:56.849Z,96834.02
2022-08-07T07:13:41.507Z,96836.09
2022-08-07T07:16:30.496Z,96839.46
2022-08-07T07:19:40.965Z,96840.13
2022-08-07T07:22:04.786Z,96839.56
2022-08-07T07:24:56.745Z,96837.45
2022-08-07T07:27:35.665Z,96841.83
2022-08-07T07:30:32.436Z,96843.13
2022-08-07T07:33:03.554Z,96847.21
2022-08-07T07:35:44.136Z,96846.76
2022-08-07T07:38:27.892Z,96846.27
2022-08-07T07:41:02.379Z,96846.45
2022-08-07T07:43:47.971Z,96845.92
2022-08-07T07:46:40.517Z,96842.36
2022-08-07T07:50:34.370Z,96844.88
2022-08-07T07:52:05.886Z,96841.55
2022-08-07T07:54:37.384Z,96839.33
2022-08-07T07:57:11.206Z,96842.27
2022-08-07T07:59:52.639Z,96843.54
2022-08-07T08:02:35.690Z,96837.23
2022-08-07T08:05:14.244Z,96833.61
2022-08-07T08:08:00.051Z,96834.98
2022-08-07T08:10:35.671Z,96829.41
2022-08-07T08:13:15.128Z,96827.94
2022-08-07T08:15:57.878Z,96831.03
2022-08-07T08:18:29.347Z,96834.79
2022-08-07T08:21:01.806Z,96831.52
2022-08-07T08:23:52.063Z,96832.93
2022-08-07T08:26:40.678Z,96833.14
2022-08-07T08:29:10.497Z,96828.20
2022-08-07T08:32:16.930Z,96826.65
2022-08-07T08:34:35.358Z,96828.55
2022-08-07T08:37:10.004Z,96830.43
2022-08-07T08:39:58.330Z,96828.86
2022-08-07T08:42:43.808Z,96823.93
2022-08-07T08:45:41.986Z,96819.31
2022-08-07T08:48:50.919Z,96818.71
2022-08-07T08:52:12.533Z,96824.85
2022-08-07T08:54:32.878Z,96825.56
2022-08-07T08:57:07.682Z,96830.38
2022-08-07T09:00:00.154Z,96825.80
2022-08-07T09:02:52.505Z,96820.02
2022-08-07T09:05:39.654Z,96821.83
2022-08-07T09:08:34.336Z,96822.73
2022-08-07T09:11:24.535Z,96813.02
2022-08-07T09:14:40.536Z,96814.77
2022-08-07T09:17:58.998Z,96816.03
2022-08-07T09:20:42.166Z,96815.10
2022-08-07T09:24:33.076Z,96819.13
2022-08-07T09:26:56.975Z,96813.00
2022-08-07T09:30:03.991Z,96813.27
2022-08-07T09:32:49.776Z,96812.69
2022-08-07T09:36:05.295Z,96810.25
2022-08-07T09:38:53.787Z,96811.48
2022-08-07T09:42:02.993Z,96808.52
2022-08-07T09:47:24.646Z,96802.40
2022-08-07T09:48:15.102Z,96803.89
2022-08-07T09:52:09.214Z,96796.69
2022-08-07T09:54:11.588Z,96802.24
2022-08-07T09:57:22.170Z,96802.64
2022-08-07T10:00:14.487Z,96801.92
2022-08-07T10:04:04.833Z,96794.67
2022-08-07T10:06:29.616Z,96792.05
2022-08-07T10:09:16.536Z,96786.62
2022-08-07T10:12:15.094Z,96784.98
2022-08-07T10:14:54.141Z,96786.38
2022-08-07T10:18:06.506Z,96787.88
2022-08-07T10:20:59.425Z,96782.17
2022-08-07T10:24:08.496Z,96781.56
2022-08-07T10:26:52.972Z,96778.86
2022-08-07T10:29:55.525Z,96774.97
2022-08-07T10:32:59.588Z,96770.23
2022-08-07T10:35:55.637Z,96772.60
2022-08-07T10:38:48.953Z,96769.99
2022-08-07T10:41:54.752Z,96764.35
2022-08-07T10:44:54.664Z,96759.71
2022-08-07T10:47:55.008Z,96764.55
2022-08-07T10:50:34.952Z,96764.73
2022-08-07T10:53:44.011Z,96758.72
2022-08-07T10:56:30.982Z,96757.02
2022-08-07T10:59:21.645Z,96758.35
2022-08-07T11:02:05.409Z,96757.67
2022-08-07T11:04:52.184Z,96751.73
2022-08-07T11:07:58.879Z,96750.52
2022-08-07T11:10:43.959Z,96752.89
2022-08-07T11:14:44.524Z,96747.16
2022-08-07T11:16:48.045Z,96745.77
2022-08-07T11:19:44.146Z,96739.05
2022-08-07T11:22:45.981Z,96736.27
2022-08-07T11:25:26.100Z,96731.42
2022-08-07T11:28:06.323Z,96728.83
2022-08-07T11:30:55.793Z,96724.93
2022-08-07T11:33:53.502Z,96721.66
2022-08-07T11:37:04.550Z,96720.39
2022-08-07T11:40:03.435Z,96719.50
2022-08-07T11:42:51.898Z,96717.81
2022-08-07T11:45:50.165Z,96716.34
2022-08-07T11:49:04.350Z,96711.58
2022-08-07T11:51:56.793Z,96711.38
2022-08-07T11:54:35.139Z,96703.41
2022-08-07T11:57:57.666Z,96698.31
2022-08-07T12:00:27.644Z,96695.08
2022-08-07T12:03:41.376Z,96693.20
2022-08-07T12:06:37.268Z,96693.36
2022-08-07T12:09:23.684Z,96689.23
2022-08-07T12:12:10.554Z,96683.88
2022-08-07T12:15:01.419Z,96681.50
2022-08-07T12:17:39.608Z,96679.47
2022-08-07T12:20:34.966Z,96673.64
2022-08-07T12:24:06.403Z,96670.06
2022-08-07T12:26:46.703Z,96665.61
2022-08-07T12:29:37.627Z,96666.15
2022-08-07T12:32:19.961Z,96660.53
2022-08-07T12:34:56.157Z,96657.84
2022-08-07T12:37:28.424Z,96655.71
2022-08-07T12:40:44.052Z,96652.73
2022-08-07T12:44:02.415Z,96647.64
2022-08-07T12:46:15.800Z,96646.64
2022-08-07T12:48:59.402Z,96644.87
2022-08-07T12:52:20.500Z,96641.70
2022-08-07T12:55:17.468Z,96643.49
2022-08-07T12:58:00.226Z,96643.73
2022-08-07T13:01:02.226Z,96644.57
2022-08-07T13:03:54.954Z,96645.45
2022-08-07T13:07:00.044Z,96643.89
2022-08-07T13:10:18.938Z,96643.91
2022-08-07T13:12:26.363Z,96643.17
2022-08-07T13:15:29.383Z,96634.55
2022-08-07T13:18:26.262Z,96636.63
2022-08-07T13:21:35.057Z,96638.22
2022-08-07T13:24:43.970Z,96634.85
2022-08-07T13:27:33.317Z,96634.53
2022-08-07T13:30:40.306Z,96635.02
2022-08-07T13:34:30.826Z,96633.98
2022-08-07T13:36:17.637Z,96631.95
2022-08-07T13:39:12.718Z,96629.89
2022-08-07T13:41:50.035Z,96628.13
2022-08-07T13:44:27.016Z,96629.43
2022-08-07T13:47:09.444Z,96629.83
2022-08-07T13:50:33.462Z,96627.50
2022-08-07T13:52:39.518Z,96617.96
2022-08-07T13:55:19.144Z,96617.16
2022-08-07T13:58:33.927Z,96623.40
2022-08-07T14:01:20.335Z,96626.23
2022-08-07T14:04:06.828Z,96622.52
2022-08-07T14:06:40.524Z,96620.36
2022-08-07T14:10:02.723Z,96622.38
2022-08-07T14:12:11.303Z,96622.13
2022-08-07T14:14:48.273Z,96622.39
2022-08-07T14:18:13.097Z,96622.80
2022-08-07T14:20:40.204Z,96626.73
2022-08-07T14:23:59.512Z,96632.75
2022-08-07T14:26:30.364Z,96635.06
2022-08-07T14:30:03.039Z,96634.01
2022-08-07T14:31:57.707Z,96634.13
2022-08-07T14:34:31.445Z,96641.44
2022-08-07T14:37:03.651Z,96648.02
2022-08-07T14:40:15.654Z,96646.70
2022-08-07T14:42:32.449Z,96651.48
2022-08-07T14:45:21.691Z,96651.79
2022-08-07T14:47:58.877Z,96645.04
2022-08-07T14:50:31.588Z,96649.00
2022-08-07T14:56:03.357Z,96646.95
2022-08-07T14:58:36.190Z,96645.38
2022-08-07T15:01:22.355Z,96646.16
2022-08-07T15:03:53.666Z,96649.23
2022-08-07T15:06:28.413Z,96645.98
2022-08-07T15:09:57.862Z,96648.98
2022-08-07T15:12:09.895Z,96662.55
2022-08-07T15:15:07.564Z,96665.83
2022-08-07T15:17:54.614Z,96662.68
2022-08-07T15:20:38.581Z,96663.89
2022-08-07T15:26:28.791Z,96669.99
2022-08-07T15:30:04.436Z,96673.31
2022-08-07T15:31:57.979Z,96677.37
2022-08-07T15:34:50.541Z,96683.67
2022-08-07T15:38:17.300Z,96685.34
2022-08-07T15:40:33.888Z,96685.98
2022-08-07T15:43:53.537Z,96688.71
2022-08-07T15:46:38.369Z,96695.12
2022-08-07T15:49:15.201Z,96699.71
2022-08-07T15:54:34.809Z,96698.48
2022-08-07T15:57:39.241Z,96700.15
2022-08-07T16:00:06.552Z,96704.22
2022-08-07T16:02:47.019Z,96704.08
2022-08-07T16:05:20.030Z,96701.48
2022-08-07T16:08:32.779Z,96702.55
2022-08-07T16:11:02.577Z,96703.33
2022-08-07T16:13:59.063Z,96703.40
2022-08-07T16:16:43.225Z,96702.69
2022-08-07T16:19:59.223Z,96706.20
2022-08-07T16:22:55.581Z,96707.00
2022-08-07T16:25:25.004Z,96704.75
2022-08-07T16:30:08.697Z,96706.21
2022-08-07T16:31:58.170Z,96712.91
2022-08-07T16:34:48.065Z,96714.92
2022-08-07T16:38:04.536Z,96716.77
2022-08-07T16:41:04.473Z,96718.82
2022-08-07T16:44:06.734Z,96723.23
2022-08-07T16:47:23.199Z,96727.61
2022-08-07T16:50:37.128Z,96729.10
2022-08-07T16:54:01.768Z,96730.41
2022-08-07T16:56:18.087Z,96738.59
2022-08-07T16:59:11.316Z,96745.38
2022-08-07T17:01:43.155Z,96746.47
2022-08-07T17:04:58.635Z,96744.91
2022-08-07T17:07:54.983Z,96743.98
2022-08-07T17:10:54.512Z,96740.61
2022-08-07T17:13:41.238Z,96746.39
2022-08-07T17:16:29.480Z,96747.15
2022-08-07T17:18:58.078Z,96750.59
2022-08-07T17:21:51.785Z,96757.23
2022-08-07T17:24:41.989Z,96756.27
2022-08-07T17:27:19.774Z,96755.16
2022-08-07T17:30:14.459Z,96755.42
2022-08-07T17:34:08.327Z,96759.23
2022-08-07T17:35:56.048Z,96761.73
2022-08-07T17:38:50.140Z,96763.88
2022-08-07T17:42:02.147Z,96766.73
2022-08-07T17:44:41.431Z,96767.05
2022-08-07T17:47:38.104Z,96768.38
2022-08-07T17:50:30.640Z,96769.95
2022-08-07T17:53:09.113Z,96765.77
2022-08-07T17:56:15.136Z,96769.52
2022-08-07T17:58:57.113Z,96771.21
2022-08-07T18:01:50.756Z,96766.73
2022-08-07T18:04:54.697Z,96772.42
2022-08-07T18:07:43.755Z,96772.51
2022-08-07T18:10:32.839Z,96771.80
2022-08-07T18:13:20.522Z,96772.74
2022-08-07T18:16:01.904Z,96773.73
2022-08-07T18:21:07.526Z,96779.02
2022-08-07T18:21:59.968Z,96779.52
2022-08-07T18:24:40.997Z,96781.34
2022-08-07T18:27:38.916Z,96793.91
2022-08-07T18:30:45.578Z,96799.99
2022-08-07T18:33:15.937Z,96803.23
2022-08-07T18:36:18.045Z,96806.47
2022-08-07T18:40:07.290Z,96805.67
2022-08-07T18:42:17.317Z,96806.83
2022-08-07T18:45:44.123Z,96809.45
2022-08-07T18:48:00.733Z,96813.56
2022-08-07T18:50:48.632Z,96815.44
2022-08-07T18:53:39.675Z,96816.23
2022-08-07T18:57:23.413Z,96814.84
2022-08-07T18:59:59.474Z,96814.95
2022-08-07T19:02:42.082Z,96815.04
2022-08-07T19:05:22.932Z,96816.63
2022-08-07T19:08:31.080Z,96819.46
2022-08-07T19:11:36.268Z,96817.26
2022-08-07T19:14:17.355Z,96815.42
2022-08-07T19:17:06.430Z,96817.44
2022-08-07T19:20:03.761Z,96821.44
2022-08-07T19:22:44.903Z,96825.15
2022-08-07T19:26:22.930Z,96827.13
2022-08-07T19:28:58.189Z,96827.23
2022-08-07T19:31:39.531Z,96827.77
2022-08-07T19:34:03.112Z,96829.69
2022-08-07T19:36:40.817Z,96830.63
2022-08-07T19:39:15.862Z,96832.44
2022-08-07T19:42:24.562Z,96836.58
2022-08-07T19:44:57.314Z,96840.92
2022-08-07T19:47:36.700Z,96849.02
2022-08-07T19:50:41.114Z,96849.80
2022-08-07T19:52:59.072Z,96844.20
2022-08-07T19:55:46.779Z,96846.79
2022-08-07T19:58:28.291Z,96845.64
2022-08-07T20:00:58.688Z,96843.14
2022-08-07T20:03:35.318Z,96839.94
2022-08-07T20:06:15.666Z,96841.85
2022-08-07T20:09:03.042Z,96841.73
2022-08-07T20:12:23.006Z,96845.31
2022-08-07T20:14:32.830Z,96846.58
2022-08-07T20:17:07.677Z,96847.50
2022-08-07T20:19:47.538Z,96846.73
2022-08-07T20:22:29.257Z,96847.36
2022-08-07T20:25:12.971Z,96846.53
2022-08-07T20:27:58.571Z,96842.30
2022-08-07T20:30:46.720Z,96835.67
2022-08-07T20:33:36.416Z,96832.74
2022-08-07T20:36:09.044Z,96829.32
2022-08-07T20:38:53.785Z,96833.52
2022-08-07T20:41:38.558Z,96831.98
2022-08-07T20:44:13.053Z,96832.77
2022-08-07T20:46:45.488Z,96835.51
2022-08-07T20:50:01.250Z,96836.55
2022-08-07T20:52:14.223Z,96837.63
2022-08-07T20:54:55.481Z,96835.50
2022-08-07T20:57:30.207Z,96837.90
2022-08-07T21:00:09.569Z,96842.84
2022-08-07T21:03:04.905Z,96839.95
2022-08-07T21:05:52.897Z,96840.10
2022-08-07T21:08:36.869Z,96842.45
2022-08-07T21:11:22.085Z,96846.33
2022-08-07T21:14:29.633Z,96844.92
2022-08-07T21:18:01.125Z,96841.71
2022-08-07T21:19:51.140Z,96841.12
2022-08-07T21:22:33.434Z,96843.77
2022-08-07T21:25:14.413Z,96847.23
2022-08-07T21:28:47.613Z,96852.09
2022-08-07T21:31:31.240Z,96856.57
2022-08-07T21:34:21.687Z,96861.04
2022-08-07T21:37:21.926Z,96864.87
2022-08-07T21:40:03.170Z,96865.39
2022-08-07T21:43:10.656Z,96863.58
2022-08-07T21:46:14.003Z,96864.27
2022-08-07T21:49:14.998Z,96868.00
2022-08-07T21:52:11.662Z,96871.81
2022-08-07T21:54:54.439Z,96867.57
2022-08-07T21:57:52.435Z,96865.59
2022-08-07T22:00:25.202Z,96866.59
2022-08-07T22:03:05.821Z,96864.35
2022-08-07T22:05:50.378Z,96868.33
2022-08-07T22:08:26.955Z,96864.34
2022-08-07T22:11:03.889Z,96863.63
2022-08-07T22:13:51.298Z,96866.06
2022-08-07T22:16:55.220Z,96864.29
2022-08-07T22:19:29.976Z,96865.52
2022-08-07T22:22:28.564Z,96868.48
2022-08-07T22:25:12.085Z,96875.41
2022-08-07T22:28:29.315Z,96878.35
2022-08-07T22:31:05.224Z,96880.77
2022-08-07T22:33:57.215Z,96881.20
2022-08-07T22:36:38.508Z,96881.39
2022-08-07T22:39:52.418Z,96879.36
2022-08-07T22:42:30.386Z,96879.74
2022-08-07T22:45:10.710Z,96879.59
2022-08-07T22:48:55.411Z,96881.06
2022-08-07T22:51:49.131Z,96881.96
2022-08-07T22:54:32.873Z,96877.85
2022-08-07T22:57:28.510Z,96882.27
2022-08-07T23:00:28.541Z,96885.02
2022-08-07T23:03:11.367Z,96883.84
2022-08-07T23:06:28.895Z,96884.90
2022-08-07T23:10:01.072Z,96884.95
2022-08-07T23:12:34.040Z,96885.04
2022-08-07T23:16:06.758Z,96885.38
2022-08-07T23:18:42.311Z,96889.23
2022-08-07T23:21:36.854Z,96888.14
2022-08-07T23:24:21.147Z,96884.55
2022-08-07T23:27:06.031Z,96886.48
2022-08-07T23:29:43.185Z,96888.20
2022-08-07T23:34:20.020Z,96884.19
2022-08-07T23:35:37.346Z,96887.26
2022-08-07T23:38:42.034Z,96886.52
2022-08-07T23:41:47.833Z,96888.89
2022-08-07T23:44:49.247Z,96885.09
2022-08-07T23:48:04.518Z,96885.34
2022-08-07T23:50:37.480Z,96885.13
2022-08-07T23:53:17.320Z,96885.99
2022-08-07T23:55:58.301Z,96886.53
2022-08-07T23:58:38.806Z,96891.48
